Time;durP1;ratioP1;P1;durP2;ratioP2;P2;SDS_P1;SDS_P2;PMS_P1;PMS_P2;Temp;Humidity;BMP_temperature;BMP_pressure;BME280_temperature;BME280_humidity;BME280_pressure;Samples;Min_cycle;Max_cycle;Signal;HPM_P1;HPM_P2
2023/06/28 00:00:00;;;;;;;5.07;2.30;;;;;;;19.34;65.60;101791.56;4965848;28;20018;-81
2023/06/28 00:02:25;;;;;;;4.50;2.30;;;;;;;19.43;65.19;101791.97;4967633;28;20037;-81
2023/06/28 00:04:52;;;;;;;5.63;2.13;;;;;;;19.39;66.06;101804.69;4968078;28;20029;-81
2023/06/28 00:07:17;;;;;;;3.95;1.95;;;;;;;19.44;64.82;101791.00;4969733;28;20084;-81
2023/06/28 00:09:42;;;;;;;5.15;2.45;;;;;;;19.32;65.17;101788.13;4969807;28;20047;-81
2023/06/28 00:12:08;;;;;;;4.25;2.40;;;;;;;19.38;65.16;101793.09;4968423;28;20031;-81
2023/06/28 00:14:33;;;;;;;4.05;2.15;;;;;;;19.29;65.75;101785.63;4970883;28;20529;-81
2023/06/28 00:16:59;;;;;;;4.78;2.63;;;;;;;19.27;65.52;101790.22;4969408;28;20026;-81
2023/06/28 00:19:26;;;;;;;6.35;2.53;;;;;;;19.23;66.55;101799.41;4967316;28;20094;-81
2023/06/28 00:21:53;;;;;;;3.85;2.20;;;;;;;19.13;68.09;101798.25;4966693;28;20036;-80
2023/06/28 00:24:19;;;;;;;4.15;2.65;;;;;;;18.84;67.24;101797.34;4969629;28;20069;-81
2023/06/28 00:26:44;;;;;;;5.60;2.55;;;;;;;18.52;69.10;101788.50;4970474;28;20062;-80
2023/06/28 00:29:09;;;;;;;4.97;2.53;;;;;;;18.33;70.53;101792.22;4967630;28;20114;-81
2023/06/28 00:31:34;;;;;;;4.10;2.30;;;;;;;18.54;69.74;101790.09;4967515;28;20429;-81
2023/06/28 00:34:00;;;;;;;4.40;2.47;;;;;;;18.77;69.04;101785.25;4964119;28;20029;-81
2023/06/28 00:36:25;;;;;;;4.55;2.72;;;;;;;18.96;68.36;101804.63;4966353;28;20212;-80
2023/06/28 00:38:50;;;;;;;4.93;2.85;;;;;;;19.00;68.62;101797.28;4963664;28;20597;-81
2023/06/28 00:41:15;;;;;;;5.60;2.72;;;;;;;18.88;68.53;101801.53;4964914;28;20031;-81
2023/06/28 00:43:41;;;;;;;7.30;3.22;;;;;;;18.76;69.93;101800.47;4962555;28;20046;-81
2023/06/28 00:46:06;;;;;;;7.35;3.17;;;;;;;18.78;69.01;101806.59;4961645;28;20034;-81
2023/06/28 00:48:32;;;;;;;4.88;2.72;;;;;;;18.69;70.77;101799.09;4946038;28;20082;-81
2023/06/28 00:50:57;;;;;;;3.75;2.80;;;;;;;18.64;70.53;101800.28;4961829;28;20042;-81
2023/06/28 00:53:23;;;;;;;5.50;2.92;;;;;;;18.48;70.37;101797.66;4965362;28;20023;-81
2023/06/28 00:55:48;;;;;;;7.15;3.65;;;;;;;18.48;70.55;101800.31;4968617;28;20026;-81
2023/06/28 00:58:14;;;;;;;4.47;2.67;;;;;;;18.43;71.57;101802.41;4966200;28;20118;-81
2023/06/28 01:00:39;;;;;;;4.85;2.97;;;;;;;18.50;70.88;101803.78;4963828;28;20105;-81
2023/06/28 01:03:05;;;;;;;3.92;3.30;;;;;;;18.42;71.52;101806.91;4967379;28;20375;-81
2023/06/28 01:05:30;;;;;;;6.15;3.25;;;;;;;18.23;72.06;101798.19;4965731;28;20117;-81
2023/06/28 01:07:56;;;;;;;6.70;3.95;;;;;;;18.18;71.53;101798.44;4967347;28;20087;-81
2023/06/28 01:10:22;;;;;;;4.22;3.13;;;;;;;18.18;71.35;101802.94;4962513;28;20508;-81
2023/06/28 01:12:49;;;;;;;5.82;3.60;;;;;;;18.20;72.86;101806.41;4967590;28;20027;-81
2023/06/28 01:15:15;;;;;;;6.97;3.53;;;;;;;18.13;71.63;101797.84;4965049;28;20030;-81
2023/06/28 01:17:40;;;;;;;7.40;3.75;;;;;;;17.96;73.53;101797.94;4962923;28;20019;-81
2023/06/28 01:20:06;;;;;;;7.40;3.80;;;;;;;17.95;72.65;101804.22;4962155;28;20498;-81
2023/06/28 01:22:33;;;;;;;5.93;3.72;;;;;;;18.09;72.65;101796.28;4961211;28;20097;-81
2023/06/28 01:24:59;;;;;;;8.40;4.05;;;;;;;18.04;73.39;101798.34;4965276;28;20053;-81
2023/06/28 01:27:26;;;;;;;6.75;4.30;;;;;;;17.97;69.96;101799.66;4961916;28;20022;-81
2023/06/28 01:29:56;;;;;;;6.85;3.55;;;;;;;17.84;70.93;101794.13;4948715;28;20117;-81
2023/06/28 01:32:22;;;;;;;6.38;4.03;;;;;;;17.98;70.29;101791.53;4965666;28;20038;-80
2023/06/28 01:34:47;;;;;;;9.00;3.75;;;;;;;18.12;70.82;101790.75;4969468;28;20490;-81
2023/06/28 01:37:13;;;;;;;9.05;3.67;;;;;;;18.19;70.73;101791.31;4965772;28;20061;-81
2023/06/28 01:39:38;;;;;;;8.98;3.97;;;;;;;18.04;71.53;101793.00;4962329;28;20042;-81
2023/06/28 01:42:04;;;;;;;16.23;4.50;;;;;;;17.89;72.16;101785.84;4963812;28;20022;-81
2023/06/28 01:44:31;;;;;;;12.98;4.40;;;;;;;17.79;72.44;101781.00;4968555;28;20035;-80
2023/06/28 01:46:57;;;;;;;11.65;4.32;;;;;;;18.02;72.38;101797.59;4967299;28;20122;-81
2023/06/28 01:49:25;;;;;;;9.43;4.28;;;;;;;18.06;72.89;101793.81;4947633;28;20570;-81
2023/06/28 01:51:51;;;;;;;11.32;4.53;;;;;;;17.78;73.35;101792.66;4965083;28;20544;-80
2023/06/28 01:54:18;;;;;;;23.10;4.20;;;;;;;17.84;71.90;101792.31;4950259;28;20046;-81
2023/06/28 01:56:43;;;;;;;19.95;3.90;;;;;;;17.98;72.20;101793.34;4946677;29;20027;-80
2023/06/28 01:59:09;;;;;;;17.55;3.92;;;;;;;18.07;71.68;101782.13;4959599;28;20537;-81
2023/06/28 02:01:34;;;;;;;10.27;3.63;;;;;;;18.23;69.66;101785.69;4947191;28;20125;-81
2023/06/28 02:03:59;;;;;;;9.70;3.13;;;;;;;18.32;70.16;101778.91;4964423;28;20054;-80
2023/06/28 02:06:25;;;;;;;8.90;2.88;;;;;;;18.42;68.51;101787.28;4965595;28;20512;-80
2023/06/28 02:08:50;;;;;;;5.15;3.08;;;;;;;18.51;68.09;101782.28;4968628;28;20046;-81
2023/06/28 02:11:15;;;;;;;5.70;2.70;;;;;;;18.56;68.43;101782.88;4964257;28;20158;-80
2023/06/28 02:13:40;;;;;;;8.55;2.92;;;;;;;18.60;68.38;101775.50;4973229;28;20033;-81
2023/06/28 02:16:06;;;;;;;7.18;3.13;;;;;;;18.56;66.55;101779.31;4969184;28;20465;-81
2023/06/28 02:18:31;;;;;;;6.70;2.90;;;;;;;18.57;68.26;101779.22;4970253;28;20033;-80
2023/06/28 02:20:57;;;;;;;5.00;2.78;;;;;;;18.56;67.80;101773.97;4968194;28;20037;-80
2023/06/28 02:23:22;;;;;;;5.50;2.67;;;;;;;18.56;67.99;101768.63;4972147;28;20062;-81
2023/06/28 02:25:47;;;;;;;5.35;2.83;;;;;;;18.52;67.60;101772.41;4972501;28;20057;-81
2023/06/28 02:28:13;;;;;;;7.82;2.70;;;;;;;18.55;65.78;101773.09;4966859;28;20077;-81
2023/06/28 02:30:38;;;;;;;5.55;3.20;;;;;;;18.50;66.90;101767.13;4971015;28;20488;-81
2023/06/28 02:33:04;;;;;;;6.38;2.88;;;;;;;18.46;67.35;101768.25;4966281;28;20035;-81
2023/06/28 02:35:30;;;;;;;3.13;2.53;;;;;;;18.46;67.87;101759.38;4970003;28;20031;-81
2023/06/28 02:37:55;;;;;;;3.85;2.35;;;;;;;18.47;66.70;101764.66;4964114;28;20490;-81
2023/06/28 02:40:21;;;;;;;6.72;2.53;;;;;;;18.50;68.21;101761.78;4967765;28;20041;-81
2023/06/28 02:42:46;;;;;;;5.25;2.60;;;;;;;18.47;67.72;101766.47;4972129;28;20437;-81
2023/06/28 02:45:11;;;;;;;7.10;2.80;;;;;;;18.45;68.97;101763.88;4970217;28;20023;-80
2023/06/28 02:47:37;;;;;;;7.13;3.50;;;;;;;18.42;68.82;101768.53;4966618;28;20035;-81
2023/06/28 02:50:05;;;;;;;4.47;2.50;;;;;;;18.07;69.54;101753.56;4966698;28;20039;-81
2023/06/28 02:52:30;;;;;;;6.18;3.20;;;;;;;18.02;70.78;101765.47;4965673;28;20485;-81
2023/06/28 02:54:56;;;;;;;5.28;3.00;;;;;;;18.01;71.68;101769.13;4953586;28;20038;-81
2023/06/28 02:57:21;;;;;;;7.38;3.50;;;;;;;18.03;69.99;101767.19;4971256;28;20359;-81
2023/06/28 02:59:46;;;;;;;7.13;3.08;;;;;;;17.98;71.24;101769.28;4971922;28;20031;-81
2023/06/28 03:02:14;;;;;;;6.50;3.17;;;;;;;18.01;70.70;101767.31;4965328;28;20030;-81
2023/06/28 03:04:39;;;;;;;5.85;2.75;;;;;;;18.06;70.10;101761.69;4970755;28;20023;-81
2023/06/28 03:07:07;;;;;;;9.23;3.22;;;;;;;18.05;70.03;101759.97;4952421;28;20137;-81
2023/06/28 03:09:32;;;;;;;6.05;3.42;;;;;;;17.99;69.26;101754.94;4971456;28;20051;-81
2023/06/28 03:11:58;;;;;;;6.55;3.08;;;;;;;17.99;69.68;101762.97;4969002;28;20551;-82
2023/06/28 03:14:23;;;;;;;7.00;3.30;;;;;;;18.00;69.46;101762.00;4969194;28;20478;-81
2023/06/28 03:16:48;;;;;;;4.22;2.88;;;;;;;17.97;68.85;101762.22;4970282;28;20038;-81
2023/06/28 03:19:14;;;;;;;5.20;2.78;;;;;;;18.03;69.52;101761.84;4966297;28;20126;-81
2023/06/28 03:21:39;;;;;;;9.00;2.90;;;;;;;17.99;69.12;101754.94;4963630;28;20166;-81
2023/06/28 03:24:04;;;;;;;6.15;3.35;;;;;;;18.00;69.64;101754.88;4967170;28;20410;-81
2023/06/28 03:26:30;;;;;;;5.43;3.08;;;;;;;17.99;69.42;101749.59;4967532;28;20158;-81
2023/06/28 03:28:57;;;;;;;3.60;2.65;;;;;;;18.04;69.73;101755.53;4963177;28;20035;-81
2023/06/28 03:31:23;;;;;;;4.80;2.85;;;;;;;18.03;68.99;101761.84;4969364;28;20033;-81
2023/06/28 03:33:48;;;;;;;6.47;3.03;;;;;;;17.99;68.99;101760.28;4969619;28;20023;-81
2023/06/28 03:36:14;;;;;;;8.85;3.70;;;;;;;18.02;69.64;101757.44;4968444;28;20540;-81
2023/06/28 03:38:40;;;;;;;3.90;3.10;;;;;;;17.97;68.92;101759.53;4967790;28;20107;-81
2023/06/28 03:41:05;;;;;;;4.00;3.00;;;;;;;17.99;69.16;101752.25;4967662;28;20181;-81
2023/06/28 03:43:30;;;;;;;5.72;3.10;;;;;;;17.92;70.55;101753.56;4968747;28;20565;-81
2023/06/28 03:45:56;;;;;;;9.40;2.90;;;;;;;17.98;69.78;101748.72;4949108;28;20034;-81
2023/06/28 03:48:21;;;;;;;8.32;3.40;;;;;;;17.90;70.62;101742.94;4966147;28;20027;-81
2023/06/28 03:50:47;;;;;;;6.43;2.97;;;;;;;17.84;69.87;101756.69;4968200;28;20034;-81
2023/06/28 03:53:12;;;;;;;9.70;3.45;;;;;;;17.78;70.56;101752.53;4963832;28;20018;-81
2023/06/28 03:55:37;;;;;;;5.60;3.20;;;;;;;17.84;70.00;101762.03;4951936;28;20038;-81
2023/06/28 03:58:03;;;;;;;6.25;2.88;;;;;;;17.80;69.32;101750.63;4965627;28;20405;-81
2023/06/28 04:00:28;;;;;;;7.63;2.80;;;;;;;17.78;70.71;101749.88;4966553;28;20065;-81
2023/06/28 04:02:53;;;;;;;7.22;2.90;;;;;;;17.81;71.01;101751.47;4965465;28;20140;-81
2023/06/28 04:05:18;;;;;;;9.13;3.13;;;;;;;17.79;70.35;101756.94;4969737;28;20597;-81
2023/06/28 04:07:44;;;;;;;6.45;2.92;;;;;;;17.83;70.92;101753.13;4958848;28;20051;-81
2023/06/28 04:10:10;;;;;;;6.07;3.10;;;;;;;17.77;70.93;101747.28;4965060;28;20035;-81
2023/06/28 04:12:35;;;;;;;6.55;3.00;;;;;;;17.76;70.46;101750.88;4966980;28;20426;-81
2023/06/28 04:15:01;;;;;;;7.50;3.67;;;;;;;17.73;69.79;101743.91;4967370;28;20038;-81
2023/06/28 04:17:26;;;;;;;4.97;3.00;;;;;;;17.68;71.00;101735.25;4963186;28;20052;-81
2023/06/28 04:19:51;;;;;;;4.20;3.45;;;;;;;17.65;70.68;101747.91;4967909;28;20023;-81
2023/06/28 04:22:17;;;;;;;7.65;2.90;;;;;;;17.69;71.06;101741.47;4968380;28;20030;-81
2023/06/28 04:24:42;;;;;;;3.97;2.70;;;;;;;17.76;70.75;101743.72;4965477;28;20492;-81
2023/06/28 04:27:09;;;;;;;6.07;3.13;;;;;;;17.74;70.69;101742.09;4968094;28;20026;-81
2023/06/28 04:29:34;;;;;;;6.50;3.10;;;;;;;17.64;71.03;101732.81;4963186;28;20033;-81
2023/06/28 04:32:01;;;;;;;6.40;3.45;;;;;;;17.62;71.25;101740.06;4967293;28;20397;-81
2023/06/28 04:34:26;;;;;;;6.70;3.13;;;;;;;17.56;71.63;101742.13;4965724;28;20027;-81
2023/06/28 04:36:52;;;;;;;5.93;3.28;;;;;;;17.54;71.16;101743.19;4967899;28;20027;-81
2023/06/28 04:39:18;;;;;;;5.97;3.45;;;;;;;17.53;71.57;101745.00;4962945;28;20062;-81
2023/06/28 04:41:45;;;;;;;6.82;3.35;;;;;;;17.55;71.82;101743.06;4963898;28;20034;-81
2023/06/28 04:44:10;;;;;;;6.90;3.58;;;;;;;17.62;71.13;101740.06;4966997;28;20169;-81
2023/06/28 04:46:35;;;;;;;8.85;3.42;;;;;;;17.71;70.98;101743.09;4965656;28;20489;-81
2023/06/28 04:49:01;;;;;;;6.75;3.78;;;;;;;17.78;71.42;101749.00;4967514;28;20026;-81
2023/06/28 04:51:26;;;;;;;6.40;3.50;;;;;;;17.82;71.17;101746.06;4965955;28;20038;-81
2023/06/28 04:53:51;;;;;;;5.95;3.83;;;;;;;17.87;71.10;101745.81;4962166;28;20104;-81
2023/06/28 04:56:17;;;;;;;7.93;4.05;;;;;;;17.79;72.52;101746.22;4968440;28;20018;-81
2023/06/28 04:58:42;;;;;;;5.47;3.70;;;;;;;17.84;70.90;101746.84;4963319;28;20031;-81
2023/06/28 05:01:08;;;;;;;6.95;3.67;;;;;;;17.95;70.78;101751.59;4962531;28;20023;-81
2023/06/28 05:03:34;;;;;;;7.68;4.00;;;;;;;17.91;72.32;101760.75;4964504;28;20047;-81
2023/06/28 05:06:02;;;;;;;8.60;3.90;;;;;;;17.94;71.24;101757.03;4963707;28;20033;-81
2023/06/28 05:08:27;;;;;;;8.52;4.13;;;;;;;18.00;70.84;101760.22;4962418;28;20055;-81
2023/06/28 05:10:53;;;;;;;9.48;4.47;;;;;;;17.99;72.82;101757.63;4963370;28;20066;-81
2023/06/28 05:13:18;;;;;;;8.10;3.75;;;;;;;18.02;71.23;101750.28;4968311;28;20019;-81
2023/06/28 05:15:43;;;;;;;9.52;3.88;;;;;;;18.06;72.14;101751.84;4965983;28;20061;-81
2023/06/28 05:18:09;;;;;;;5.35;3.83;;;;;;;18.10;71.04;101750.72;4967574;28;20113;-81
2023/06/28 05:20:34;;;;;;;6.95;4.60;;;;;;;18.08;71.56;101754.41;4964131;28;20063;-81
2023/06/28 05:23:11;;;;;;;7.93;4.68;;;;;;;18.07;70.86;101750.88;4967736;28;20109;-81
2023/06/28 05:25:40;;;;;;;8.23;4.40;;;;;;;18.00;71.88;101738.81;4966573;28;20106;-81
2023/06/28 05:28:07;;;;;;;8.77;4.68;;;;;;;17.87;72.51;101740.47;4967046;28;20046;-81
2023/06/28 05:30:33;;;;;;;8.50;5.22;;;;;;;17.94;70.41;101744.50;4967840;28;20092;-81
2023/06/28 05:33:01;;;;;;;12.80;4.53;;;;;;;17.96;71.07;101749.78;4960355;28;20482;-81
2023/06/28 05:35:27;;;;;;;6.57;4.20;;;;;;;17.98;70.82;101747.88;4962933;28;20039;-81
2023/06/28 05:37:52;;;;;;;6.45;4.30;;;;;;;18.02;71.60;101744.94;4964447;28;20085;-81
2023/06/28 05:40:18;;;;;;;7.95;4.63;;;;;;;17.80;72.82;101739.06;4965363;28;20030;-81
2023/06/28 05:42:43;;;;;;;7.55;4.75;;;;;;;17.77;72.09;101745.47;4966092;28;20286;-81
2023/06/28 05:45:08;;;;;;;8.88;5.25;;;;;;;17.75;73.19;101741.13;4971223;28;20377;-81
2023/06/28 05:47:34;;;;;;;9.02;5.00;;;;;;;17.88;73.17;101741.31;4967458;28;20035;-81
2023/06/28 05:49:59;;;;;;;10.55;4.88;;;;;;;17.91;71.77;101741.16;4969398;28;20038;-81
2023/06/28 05:52:24;;;;;;;8.48;4.88;;;;;;;17.93;72.09;101744.59;4970583;28;20397;-81
2023/06/28 05:54:50;;;;;;;9.63;4.78;;;;;;;18.04;71.52;101734.13;4968813;28;20022;-81
2023/06/28 05:57:16;;;;;;;9.13;5.15;;;;;;;18.10;71.52;101731.13;4968644;28;20073;-81
2023/06/28 05:59:41;;;;;;;10.77;5.07;;;;;;;18.10;71.90;101737.34;4965354;28;20030;-81
2023/06/28 06:02:06;;;;;;;9.15;4.70;;;;;;;18.12;71.54;101736.38;4964044;28;21581;-81
2023/06/28 06:04:32;;;;;;;7.82;5.22;;;;;;;18.05;71.68;101738.56;4971048;28;20035;-81
2023/06/28 06:06:57;;;;;;;9.45;5.47;;;;;;;18.04;72.57;101739.47;4968274;28;20486;-81
2023/06/28 06:09:22;;;;;;;10.55;4.90;;;;;;;18.09;71.53;101742.75;4970414;28;20121;-81
2023/06/28 06:11:48;;;;;;;13.60;5.50;;;;;;;18.25;70.86;101735.59;4967335;28;20037;-81
2023/06/28 06:14:13;;;;;;;8.30;5.35;;;;;;;18.34;70.01;101729.69;4972478;28;20034;-81
2023/06/28 06:16:38;;;;;;;13.30;5.63;;;;;;;18.44;70.87;101734.50;4953108;28;20033;-81
2023/06/28 06:19:03;;;;;;;9.95;5.63;;;;;;;18.45;70.48;101728.19;4969216;28;20515;-81
2023/06/28 06:21:29;;;;;;;9.93;5.40;;;;;;;18.44;72.06;101729.16;4970161;28;20050;-81
2023/06/28 06:23:54;;;;;;;8.68;5.22;;;;;;;18.47;70.94;101739.69;4971937;28;20039;-81
2023/06/28 06:26:19;;;;;;;8.10;5.05;;;;;;;18.49;70.42;101740.47;4950073;28;20027;-81
2023/06/28 06:28:44;;;;;;;13.98;6.18;;;;;;;18.49;71.04;101732.41;4969879;28;20027;-81
2023/06/28 06:31:13;;;;;;;10.27;5.30;;;;;;;18.56;70.41;101728.44;4952485;28;20015;-81
2023/06/28 06:33:39;;;;;;;7.53;5.40;;;;;;;18.58;69.46;101729.19;4971188;28;20421;-81
2023/06/28 06:36:04;;;;;;;10.77;5.93;;;;;;;18.58;71.67;101729.19;4969322;28;20026;-80
2023/06/28 06:38:29;;;;;;;12.23;6.35;;;;;;;18.54;71.42;101727.66;4971237;28;20039;-81
2023/06/28 06:40:55;;;;;;;9.20;6.18;;;;;;;18.56;71.79;101731.97;4969822;28;20041;-81
2023/06/28 06:43:20;;;;;;;8.85;6.13;;;;;;;18.55;70.96;101732.91;4955892;28;20457;-81
2023/06/28 06:45:46;;;;;;;13.88;6.57;;;;;;;18.59;70.52;101730.91;4953256;28;20035;-81
2023/06/28 06:48:11;;;;;;;9.77;6.35;;;;;;;18.67;69.94;101736.69;4966054;28;20027;-81
2023/06/28 06:50:36;;;;;;;14.70;7.32;;;;;;;18.53;71.10;101733.97;4968051;28;20118;-81
2023/06/28 06:53:02;;;;;;;10.38;6.82;;;;;;;18.53;71.15;101733.97;4972059;28;20381;-81
2023/06/28 06:55:27;;;;;;;9.18;6.47;;;;;;;18.48;70.44;101734.25;4969431;28;20038;-81
2023/06/28 06:57:52;;;;;;;11.73;6.43;;;;;;;18.43;71.67;101746.19;4949984;28;20030;-81
2023/06/28 07:00:18;;;;;;;12.10;6.50;;;;;;;18.51;71.37;101744.78;4963067;28;20038;-81
2023/06/28 07:02:43;;;;;;;11.90;6.53;;;;;;;18.63;70.56;101745.84;4950270;28;20393;-81
2023/06/28 07:05:09;;;;;;;10.38;6.28;;;;;;;18.60;70.34;101751.38;4953496;28;20193;-81
2023/06/28 07:07:34;;;;;;;10.55;6.32;;;;;;;18.71;70.05;101748.13;4965387;28;20046;-80
2023/06/28 07:09:59;;;;;;;9.75;6.15;;;;;;;18.69;69.79;101740.16;4965659;28;20520;-80
2023/06/28 07:12:26;;;;;;;10.00;6.03;;;;;;;18.76;69.95;101741.53;4965814;28;20055;-80
2023/06/28 07:14:51;;;;;;;13.10;6.57;;;;;;;18.64;70.80;101744.91;4973073;28;20665;-80
2023/06/28 07:17:16;;;;;;;8.35;6.72;;;;;;;18.56;71.18;101756.09;4954513;28;20023;-80
2023/06/28 07:19:42;;;;;;;9.27;6.43;;;;;;;18.53;71.80;101758.94;4970592;28;20522;-80
2023/06/28 07:22:07;;;;;;;13.88;6.50;;;;;;;18.61;71.32;101758.50;4950477;28;20039;-80
2023/06/28 07:24:32;;;;;;;8.38;6.05;;;;;;;18.78;70.93;101749.47;4970685;28;20031;-80
2023/06/28 07:26:58;;;;;;;9.25;5.57;;;;;;;18.90;70.09;101754.09;4970001;28;20122;-80
2023/06/28 07:29:24;;;;;;;11.25;6.78;;;;;;;18.84;71.54;101758.00;4968151;28;20043;-81
2023/06/28 07:31:50;;;;;;;10.75;6.57;;;;;;;18.78;72.41;101763.72;4968331;28;20030;-81
2023/06/28 07:34:15;;;;;;;10.75;6.18;;;;;;;18.82;70.97;101761.72;4966510;28;20019;-81
2023/06/28 07:36:40;;;;;;;14.20;6.10;;;;;;;18.86;68.40;101755.22;4949362;28;20035;-81
2023/06/28 07:39:06;;;;;;;11.68;6.70;;;;;;;18.97;69.49;101751.88;4965970;28;20129;-81
2023/06/28 07:41:32;;;;;;;12.93;6.82;;;;;;;18.98;68.84;101756.28;4949102;28;20031;-81
2023/06/28 07:43:57;;;;;;;11.20;5.93;;;;;;;19.09;68.82;101748.47;4948397;28;20038;-80
2023/06/28 07:46:22;;;;;;;11.43;6.13;;;;;;;18.99;69.22;101750.84;4970282;28;20038;-81
2023/06/28 07:48:51;;;;;;;9.07;5.32;;;;;;;19.19;68.74;101748.75;4970522;28;20387;-81
2023/06/28 07:51:17;;;;;;;12.38;6.30;;;;;;;19.36;67.99;101752.13;4966329;28;20134;-81
2023/06/28 07:53:42;;;;;;;9.18;5.50;;;;;;;19.53;67.24;101748.38;4967717;28;20098;-81
2023/06/28 07:56:08;;;;;;;11.05;5.85;;;;;;;19.66;67.02;101748.47;4970880;28;20081;-81
2023/06/28 07:58:36;;;;;;;12.63;6.30;;;;;;;19.52;68.87;101745.78;4967183;28;20073;-81
2023/06/28 08:01:01;;;;;;;11.40;5.80;;;;;;;19.60;68.30;101756.94;4966056;28;20027;-81
2023/06/28 08:03:27;;;;;;;10.82;5.47;;;;;;;19.70;67.92;101755.38;4967032;28;20086;-81
2023/06/28 08:05:52;;;;;;;9.48;5.70;;;;;;;19.78;67.57;101753.06;4970783;28;20048;-81
2023/06/28 08:08:17;;;;;;;10.23;5.72;;;;;;;19.86;66.18;101755.25;4967093;28;20283;-81
2023/06/28 08:10:43;;;;;;;10.38;5.47;;;;;;;19.88;67.53;101753.34;4963271;28;20046;-81
2023/06/28 08:13:08;;;;;;;7.60;4.30;;;;;;;19.74;63.85;101761.41;4964505;28;20023;-81
2023/06/28 08:15:36;;;;;;;8.38;4.20;;;;;;;19.62;64.79;101755.00;4971448;28;20478;-82
2023/06/28 08:18:02;;;;;;;8.77;4.20;;;;;;;19.41;65.90;101750.97;4969687;28;20026;-83
2023/06/28 08:20:28;;;;;;;10.95;4.22;;;;;;;19.47;64.41;101751.44;4970115;28;20115;-83
2023/06/28 08:22:54;;;;;;;10.48;4.28;;;;;;;19.41;64.08;101751.84;4969572;28;20046;-83
2023/06/28 08:25:19;;;;;;;12.13;4.80;;;;;;;19.36;64.54;101743.22;4971300;28;20474;-83
2023/06/28 08:27:44;;;;;;;7.63;4.30;;;;;;;19.51;64.02;101742.25;4965505;28;20030;-83
2023/06/28 08:30:10;;;;;;;11.35;5.00;;;;;;;19.65;62.94;101748.59;4969459;28;20054;-83
2023/06/28 08:32:35;;;;;;;6.30;4.45;;;;;;;19.64;64.16;101749.56;4968174;28;20031;-83
2023/06/28 08:35:05;;;;;;;11.35;4.80;;;;;;;19.69;62.67;101745.63;4944866;28;20035;-83
2023/06/28 08:37:34;;;;;;;10.02;4.70;;;;;;;19.64;63.18;101752.25;4967870;28;20042;-83
2023/06/28 08:39:59;;;;;;;8.52;4.57;;;;;;;19.75;61.99;101752.41;4966581;28;20389;-83
2023/06/28 08:42:25;;;;;;;6.70;3.92;;;;;;;19.84;62.09;101757.19;4966838;28;20027;-83
2023/06/28 08:44:51;;;;;;;9.43;4.22;;;;;;;19.78;60.50;101765.63;4969775;28;20038;-83
2023/06/28 08:47:18;;;;;;;9.35;4.05;;;;;;;19.76;61.71;101759.50;4963131;28;20541;-84
2023/06/28 08:49:43;;;;;;;7.60;4.15;;;;;;;19.87;61.12;101760.53;4966485;28;20084;-82
2023/06/28 08:52:10;;;;;;;10.40;4.38;;;;;;;19.88;60.66;101748.84;4967836;28;20023;-81
2023/06/28 08:54:35;;;;;;;6.53;3.80;;;;;;;19.85;60.25;101758.91;4964698;28;20023;-82
2023/06/28 08:57:01;;;;;;;9.30;4.35;;;;;;;19.84;60.21;101755.34;4963228;28;20371;-82
2023/06/28 08:59:28;;;;;;;8.00;4.32;;;;;;;20.07;60.46;101747.63;4964187;28;20374;-82
2023/06/28 09:01:55;;;;;;;6.20;4.47;;;;;;;20.10;60.17;101752.81;4965827;28;20034;-82
2023/06/28 09:04:27;;;;;;;11.63;4.57;;;;;;;20.21;61.69;101744.03;4965883;28;20077;-81
2023/06/28 09:06:52;;;;;;;;;;;;;;;20.51;59.80;101746.53;4958285;28;20059;-81
2023/06/28 09:09:18;;;;;;;10.33;4.23;;;;;;;20.44;60.34;101745.19;4965010;28;20680;-81
2023/06/28 09:11:44;;;;;;;9.05;4.10;;;;;;;20.58;59.39;101750.53;4963531;28;20812;-82
2023/06/28 09:14:10;;;;;;;10.68;4.30;;;;;;;20.47;59.66;101742.28;4964102;28;20064;-80
2023/06/28 09:16:36;;;;;;;7.95;4.07;;;;;;;20.42;58.95;101744.41;4968236;28;20113;-80
2023/06/28 09:19:01;;;;;;;7.97;4.30;;;;;;;20.36;59.59;101741.19;4971346;28;20121;-80
2023/06/28 09:21:28;;;;;;;7.35;4.05;;;;;;;20.48;59.28;101742.22;4967971;28;20043;-82
2023/06/28 09:23:54;;;;;;;8.20;4.60;;;;;;;20.61;59.29;101736.88;4966352;28;20521;-81
2023/06/28 09:26:20;;;;;;;7.85;4.22;;;;;;;20.86;59.02;101739.59;4966339;28;20055;-81
2023/06/28 09:28:45;;;;;;;8.85;4.75;;;;;;;20.91;58.97;101744.66;4962630;28;20445;-80
2023/06/28 09:31:17;;;;;;;7.40;4.05;;;;;;;20.93;59.14;101740.03;4971235;28;20027;-80
2023/06/28 09:33:43;;;;;;;6.35;3.70;;;;;;;21.18;58.85;101741.03;4968659;28;20026;-80
2023/06/28 09:36:10;;;;;;;10.02;3.63;;;;;;;21.30;57.91;101740.13;4971106;28;20106;-79
2023/06/28 09:38:43;;;;;;;9.38;3.80;;;;;;;21.39;56.87;101748.44;4971560;28;20035;-79
2023/06/28 09:41:09;;;;;;;7.03;3.40;;;;;;;21.36;58.05;101747.81;4972639;28;20058;-79
2023/06/28 09:43:35;;;;;;;10.00;3.78;;;;;;;21.29;56.88;101750.03;4950561;28;20458;-80
2023/06/28 09:46:17;;;;;;;8.48;4.05;;;;;;;21.35;56.77;101749.63;4971106;28;20042;-79
2023/06/28 09:48:44;;;;;;;8.40;3.80;;;;;;;21.47;56.50;101738.97;4972686;28;20033;-79
2023/06/28 09:51:11;;;;;;;11.77;4.20;;;;;;;21.26;56.39;101742.19;4971142;28;20486;-79
2023/06/28 09:53:50;;;;;;;7.63;3.67;;;;;;;21.45;56.17;101738.22;4966807;28;20085;-80
2023/06/28 09:56:16;;;;;;;10.23;3.92;;;;;;;21.63;56.19;101744.97;4967350;28;20394;-80
2023/06/28 09:58:45;;;;;;;8.50;3.83;;;;;;;21.67;55.17;101742.91;4949152;28;20027;-80
2023/06/28 10:01:10;;;;;;;11.27;3.85;;;;;;;21.82;56.29;101731.91;4968571;28;20062;-79
2023/06/28 10:03:38;;;;;;;9.20;3.88;;;;;;;21.98;55.37;101734.31;4968563;28;20057;-79
2023/06/28 10:06:05;;;;;;;8.25;3.72;;;;;;;21.94;54.25;101724.75;4968039;28;20033;-79
2023/06/28 10:08:30;;;;;;;9.02;3.38;;;;;;;22.03;54.83;101723.22;4968680;28;20062;-80
2023/06/28 10:10:55;;;;;;;4.22;2.97;;;;;;;22.37;54.70;101718.84;4951141;28;20030;-79
2023/06/28 10:13:21;;;;;;;9.93;3.53;;;;;;;22.47;54.23;101722.56;4969541;28;20400;-81
2023/06/28 10:16:05;;;;;;;8.52;3.40;;;;;;;22.60;54.01;101725.19;4967358;28;20146;-81
2023/06/28 10:18:31;;;;;;;6.90;3.30;;;;;;;22.70;53.11;101715.41;4972714;28;20043;-82
2023/06/28 10:20:57;;;;;;;9.38;3.60;;;;;;;22.79;51.76;101712.00;4965008;28;20026;-80
2023/06/28 10:23:24;;;;;;;9.40;3.80;;;;;;;23.02;50.76;101717.47;4965652;28;20463;-80
2023/06/28 10:25:49;;;;;;;7.93;3.60;;;;;;;23.19;51.38;101713.44;4969260;28;20055;-80
2023/06/28 10:28:15;;;;;;;6.03;2.60;;;;;;;23.29;51.52;101712.56;4969952;28;20196;-80
2023/06/28 10:30:45;;;;;;;7.72;3.17;;;;;;;23.47;50.97;101709.38;4968879;28;20509;-79
2023/06/28 10:33:10;;;;;;;6.90;3.22;;;;;;;23.49;48.72;101715.50;4964188;28;20932;-79
2023/06/28 10:35:36;;;;;;;6.32;3.15;;;;;;;23.66;49.28;101707.78;4967547;28;20129;-79
2023/06/28 10:38:04;;;;;;;7.90;2.83;;;;;;;23.73;49.52;101713.53;4952027;28;20125;-79
2023/06/28 10:40:29;;;;;;;5.53;3.28;;;;;;;24.12;48.87;101713.94;4964964;28;20505;-79
2023/06/28 10:42:54;;;;;;;9.32;4.15;;;;;;;24.48;48.95;101703.72;4968643;28;20059;-80
2023/06/28 10:45:37;;;;;;;14.15;3.75;;;;;;;24.52;48.84;101713.28;4967329;28;20023;-79
2023/06/28 10:48:04;;;;;;;6.10;3.20;;;;;;;24.23;47.40;101711.19;4967245;28;20442;-80
2023/06/28 10:50:39;;;;;;;9.73;3.65;;;;;;;24.48;48.85;101714.53;4952393;28;20417;-80
2023/06/28 10:53:05;;;;;;;6.75;4.00;;;;;;;24.45;46.78;101718.38;4968077;28;20532;-80
2023/06/28 10:55:34;;;;;;;7.50;3.70;;;;;;;24.52;46.27;101711.44;4966961;28;20031;-80
2023/06/28 10:58:07;;;;;;;6.43;2.65;;;;;;;24.88;46.69;101711.97;4968159;28;20331;-79
2023/06/28 11:00:44;;;;;;;7.72;3.10;;;;;;;24.81;46.58;101708.13;4963462;28;20026;-79
2023/06/28 11:03:10;;;;;;;7.90;3.33;;;;;;;24.90;45.10;101697.34;4966237;28;20039;-80
2023/06/28 11:05:36;;;;;;;8.45;3.35;;;;;;;24.98;45.25;101699.38;4961218;28;20027;-80
2023/06/28 11:08:09;;;;;;;7.32;3.38;;;;;;;25.37;44.55;101700.44;4966819;28;20535;-79
2023/06/28 11:11:00;;;;;;;5.75;3.00;;;;;;;25.76;46.60;101687.03;4964478;28;20062;-79
2023/06/28 11:13:32;;;;;;;9.68;3.50;;;;;;;25.89;44.63;101687.63;4965424;28;20018;-79
2023/06/28 11:16:12;;;;;;;11.23;4.40;;;;;;;25.69;43.94;101685.84;4964806;28;20046;-79
2023/06/28 11:18:38;;;;;;;10.82;3.70;;;;;;;25.47;44.37;101686.94;4967519;28;20026;-80